sensor_id;sensor_type;location;lat;lon;timestamp;P1;durP1;ratioP1;P2;durP2;ratioP2
21114;SDS011;10715;48.546;9.896;2023-04-08T00:01:23;9.33;;;5.97;;
21114;SDS011;10715;48.546;9.896;2023-04-08T00:03:48;10.20;;;8.27;;
21114;SDS011;10715;48.546;9.896;2023-04-08T00:06:14;7.30;;;5.87;;
21114;SDS011;10715;48.546;9.896;2023-04-08T00:08:40;12.37;;;8.90;;
21114;SDS011;10715;48.546;9.896;2023-04-08T00:11:05;15.70;;;9.53;;
21114;SDS011;10715;48.546;9.896;2023-04-08T00:13:31;19.07;;;9.03;;
21114;SDS011;10715;48.546;9.896;2023-04-08T00:15:57;14.27;;;9.30;;
21114;SDS011;10715;48.546;9.896;2023-04-08T00:18:23;16.07;;;10.83;;
21114;SDS011;10715;48.546;9.896;2023-04-08T00:20:49;15.57;;;10.27;;
21114;SDS011;10715;48.546;9.896;2023-04-08T00:23:15;17.60;;;10.00;;
21114;SDS011;10715;48.546;9.896;2023-04-08T00:25:40;10.63;;;9.27;;
21114;SDS011;10715;48.546;9.896;2023-04-08T00:28:06;11.90;;;8.73;;
21114;SDS011;10715;48.546;9.896;2023-04-08T00:30:33;10.97;;;7.30;;
21114;SDS011;10715;48.546;9.896;2023-04-08T00:32:58;15.23;;;9.80;;
21114;SDS011;10715;48.546;9.896;2023-04-08T00:35:25;16.57;;;9.47;;
21114;SDS011;10715;48.546;9.896;2023-04-08T00:37:51;10.93;;;8.17;;
21114;SDS011;10715;48.546;9.896;2023-04-08T00:40:17;17.60;;;11.40;;
21114;SDS011;10715;48.546;9.896;2023-04-08T00:42:43;16.73;;;8.97;;
21114;SDS011;10715;48.546;9.896;2023-04-08T00:45:08;17.57;;;11.27;;
21114;SDS011;10715;48.546;9.896;2023-04-08T00:47:35;13.53;;;9.47;;
21114;SDS011;10715;48.546;9.896;2023-04-08T00:50:01;17.13;;;10.87;;
21114;SDS011;10715;48.546;9.896;2023-04-08T00:52:28;15.77;;;9.93;;
21114;SDS011;10715;48.546;9.896;2023-04-08T00:54:56;16.83;;;10.20;;
21114;SDS011;10715;48.546;9.896;2023-04-08T00:57:22;16.70;;;10.53;;
21114;SDS011;10715;48.546;9.896;2023-04-08T00:59:48;15.57;;;9.33;;
21114;SDS011;10715;48.546;9.896;2023-04-08T01:02:37;15.93;;;9.47;;
21114;SDS011;10715;48.546;9.896;2023-04-08T01:05:27;20.50;;;11.90;;
21114;SDS011;10715;48.546;9.896;2023-04-08T01:08:07;15.27;;;9.73;;
21114;SDS011;10715;48.546;9.896;2023-04-08T01:10:35;19.53;;;11.47;;
21114;SDS011;10715;48.546;9.896;2023-04-08T01:13:04;22.03;;;12.03;;
21114;SDS011;10715;48.546;9.896;2023-04-08T01:15:34;25.10;;;13.47;;
21114;SDS011;10715;48.546;9.896;2023-04-08T01:18:05;19.10;;;10.50;;
21114;SDS011;10715;48.546;9.896;2023-04-08T01:20:32;15.30;;;9.70;;
21114;SDS011;10715;48.546;9.896;2023-04-08T01:25:50;18.27;;;12.47;;
21114;SDS011;10715;48.546;9.896;2023-04-08T01:28:21;20.47;;;11.13;;
21114;SDS011;10715;48.546;9.896;2023-04-08T01:30:49;17.27;;;10.70;;
21114;SDS011;10715;48.546;9.896;2023-04-08T01:33:16;16.63;;;10.80;;
21114;SDS011;10715;48.546;9.896;2023-04-08T01:35:43;18.20;;;13.07;;
21114;SDS011;10715;48.546;9.896;2023-04-08T01:38:13;17.87;;;11.17;;
21114;SDS011;10715;48.546;9.896;2023-04-08T01:40:42;16.93;;;10.60;;
21114;SDS011;10715;48.546;9.896;2023-04-08T01:43:10;20.30;;;12.60;;
21114;SDS011;10715;48.546;9.896;2023-04-08T01:45:38;21.00;;;12.83;;
21114;SDS011;10715;48.546;9.896;2023-04-08T01:48:04;16.90;;;9.03;;
21114;SDS011;10715;48.546;9.896;2023-04-08T01:50:31;14.93;;;8.83;;
21114;SDS011;10715;48.546;9.896;2023-04-08T01:52:58;18.00;;;9.50;;
21114;SDS011;10715;48.546;9.896;2023-04-08T01:55:26;13.23;;;7.53;;
21114;SDS011;10715;48.546;9.896;2023-04-08T01:57:53;13.00;;;8.07;;
21114;SDS011;10715;48.546;9.896;2023-04-08T02:00:22;12.50;;;8.47;;
21114;SDS011;10715;48.546;9.896;2023-04-08T02:02:52;11.90;;;7.83;;
21114;SDS011;10715;48.546;9.896;2023-04-08T02:05:19;12.30;;;7.33;;
21114;SDS011;10715;48.546;9.896;2023-04-08T02:07:46;14.20;;;8.23;;
21114;SDS011;10715;48.546;9.896;2023-04-08T02:10:12;10.00;;;7.63;;
21114;SDS011;10715;48.546;9.896;2023-04-08T02:12:38;13.87;;;8.30;;
21114;SDS011;10715;48.546;9.896;2023-04-08T02:15:04;9.20;;;6.20;;
21114;SDS011;10715;48.546;9.896;2023-04-08T02:17:50;7.63;;;5.60;;
21114;SDS011;10715;48.546;9.896;2023-04-08T02:20:23;7.03;;;5.60;;
21114;SDS011;10715;48.546;9.896;2023-04-08T02:23:20;5.27;;;4.60;;
21114;SDS011;10715;48.546;9.896;2023-04-08T02:25:48;7.43;;;6.47;;
21114;SDS011;10715;48.546;9.896;2023-04-08T02:28:16;8.60;;;6.50;;
21114;SDS011;10715;48.546;9.896;2023-04-08T02:30:50;12.13;;;7.00;;
21114;SDS011;10715;48.546;9.896;2023-04-08T02:33:19;10.40;;;6.77;;
21114;SDS011;10715;48.546;9.896;2023-04-08T02:35:47;6.77;;;6.20;;
21114;SDS011;10715;48.546;9.896;2023-04-08T02:38:15;11.83;;;7.93;;
21114;SDS011;10715;48.546;9.896;2023-04-08T02:40:41;14.73;;;9.00;;
21114;SDS011;10715;48.546;9.896;2023-04-08T02:43:06;11.27;;;9.17;;
21114;SDS011;10715;48.546;9.896;2023-04-08T02:45:40;15.53;;;9.50;;
21114;SDS011;10715;48.546;9.896;2023-04-08T02:48:06;13.20;;;9.40;;
21114;SDS011;10715;48.546;9.896;2023-04-08T02:50:32;14.17;;;9.37;;
21114;SDS011;10715;48.546;9.896;2023-04-08T02:52:58;12.20;;;8.70;;
21114;SDS011;10715;48.546;9.896;2023-04-08T02:55:23;9.43;;;7.23;;
21114;SDS011;10715;48.546;9.896;2023-04-08T02:57:49;14.90;;;9.07;;
21114;SDS011;10715;48.546;9.896;2023-04-08T03:00:15;15.97;;;7.60;;
21114;SDS011;10715;48.546;9.896;2023-04-08T03:02:41;9.23;;;7.77;;
21114;SDS011;10715;48.546;9.896;2023-04-08T03:05:07;12.33;;;7.73;;
21114;SDS011;10715;48.546;9.896;2023-04-08T03:07:33;11.33;;;6.90;;
21114;SDS011;10715;48.546;9.896;2023-04-08T03:10:00;9.57;;;5.97;;
21114;SDS011;10715;48.546;9.896;2023-04-08T03:12:26;8.43;;;7.00;;
21114;SDS011;10715;48.546;9.896;2023-04-08T03:14:52;10.13;;;6.83;;
21114;SDS011;10715;48.546;9.896;2023-04-08T03:17:18;9.37;;;5.93;;
21114;SDS011;10715;48.546;9.896;2023-04-08T03:19:43;5.70;;;4.63;;
21114;SDS011;10715;48.546;9.896;2023-04-08T03:22:09;10.90;;;5.53;;
21114;SDS011;10715;48.546;9.896;2023-04-08T03:24:35;9.50;;;5.70;;
21114;SDS011;10715;48.546;9.896;2023-04-08T03:27:01;7.10;;;5.63;;
21114;SDS011;10715;48.546;9.896;2023-04-08T03:29:27;8.67;;;5.80;;
21114;SDS011;10715;48.546;9.896;2023-04-08T03:31:53;10.43;;;5.23;;
21114;SDS011;10715;48.546;9.896;2023-04-08T03:34:19;8.53;;;7.00;;
21114;SDS011;10715;48.546;9.896;2023-04-08T03:36:45;6.40;;;5.80;;
21114;SDS011;10715;48.546;9.896;2023-04-08T03:39:10;6.90;;;5.20;;
21114;SDS011;10715;48.546;9.896;2023-04-08T03:41:36;9.10;;;6.20;;
21114;SDS011;10715;48.546;9.896;2023-04-08T03:44:02;11.10;;;6.33;;
21114;SDS011;10715;48.546;9.896;2023-04-08T03:46:27;10.73;;;7.20;;
21114;SDS011;10715;48.546;9.896;2023-04-08T03:48:53;7.40;;;6.43;;
21114;SDS011;10715;48.546;9.896;2023-04-08T03:51:19;8.77;;;6.07;;
21114;SDS011;10715;48.546;9.896;2023-04-08T03:53:45;7.67;;;6.83;;
21114;SDS011;10715;48.546;9.896;2023-04-08T03:56:12;12.03;;;6.60;;
21114;SDS011;10715;48.546;9.896;2023-04-08T03:58:38;8.13;;;6.30;;
21114;SDS011;10715;48.546;9.896;2023-04-08T04:01:03;7.93;;;6.67;;
21114;SDS011;10715;48.546;9.896;2023-04-08T04:03:29;10.40;;;6.23;;
21114;SDS011;10715;48.546;9.896;2023-04-08T04:05:55;7.73;;;6.13;;
21114;SDS011;10715;48.546;9.896;2023-04-08T04:08:21;8.33;;;6.33;;
21114;SDS011;10715;48.546;9.896;2023-04-08T04:10:47;10.37;;;7.73;;
21114;SDS011;10715;48.546;9.896;2023-04-08T04:13:12;18.53;;;10.17;;
21114;SDS011;10715;48.546;9.896;2023-04-08T04:15:38;18.60;;;10.47;;
21114;SDS011;10715;48.546;9.896;2023-04-08T04:18:05;21.10;;;9.50;;
21114;SDS011;10715;48.546;9.896;2023-04-08T04:20:31;13.43;;;8.63;;
21114;SDS011;10715;48.546;9.896;2023-04-08T04:22:57;13.70;;;8.93;;
21114;SDS011;10715;48.546;9.896;2023-04-08T04:25:22;10.37;;;9.37;;
21114;SDS011;10715;48.546;9.896;2023-04-08T04:27:48;16.73;;;11.70;;
21114;SDS011;10715;48.546;9.896;2023-04-08T04:30:14;11.73;;;9.13;;
21114;SDS011;10715;48.546;9.896;2023-04-08T04:32:43;14.60;;;10.07;;
21114;SDS011;10715;48.546;9.896;2023-04-08T04:35:09;16.17;;;10.87;;
21114;SDS011;10715;48.546;9.896;2023-04-08T04:37:36;11.10;;;8.80;;
21114;SDS011;10715;48.546;9.896;2023-04-08T04:40:02;12.77;;;8.70;;
21114;SDS011;10715;48.546;9.896;2023-04-08T04:42:29;15.30;;;10.90;;
21114;SDS011;10715;48.546;9.896;2023-04-08T04:44:55;17.00;;;10.87;;
21114;SDS011;10715;48.546;9.896;2023-04-08T04:47:21;16.80;;;9.50;;
21114;SDS011;10715;48.546;9.896;2023-04-08T04:49:47;17.33;;;10.17;;
21114;SDS011;10715;48.546;9.896;2023-04-08T04:52:12;12.80;;;10.10;;
21114;SDS011;10715;48.546;9.896;2023-04-08T04:54:38;10.57;;;8.40;;
21114;SDS011;10715;48.546;9.896;2023-04-08T04:57:04;15.23;;;9.63;;
21114;SDS011;10715;48.546;9.896;2023-04-08T04:59:30;12.33;;;8.33;;
21114;SDS011;10715;48.546;9.896;2023-04-08T05:01:55;14.00;;;8.80;;
21114;SDS011;10715;48.546;9.896;2023-04-08T05:04:22;13.80;;;9.67;;
21114;SDS011;10715;48.546;9.896;2023-04-08T05:06:50;14.13;;;8.87;;
21114;SDS011;10715;48.546;9.896;2023-04-08T05:09:16;13.37;;;9.00;;
21114;SDS011;10715;48.546;9.896;2023-04-08T05:11:42;21.63;;;11.90;;
21114;SDS011;10715;48.546;9.896;2023-04-08T05:14:07;17.83;;;9.33;;
21114;SDS011;10715;48.546;9.896;2023-04-08T05:16:33;14.67;;;9.27;;
21114;SDS011;10715;48.546;9.896;2023-04-08T05:19:00;16.87;;;9.80;;
21114;SDS011;10715;48.546;9.896;2023-04-08T05:21:25;19.37;;;10.73;;
21114;SDS011;10715;48.546;9.896;2023-04-08T05:23:51;17.43;;;9.53;;
21114;SDS011;10715;48.546;9.896;2023-04-08T05:26:18;17.77;;;9.90;;
21114;SDS011;10715;48.546;9.896;2023-04-08T05:28:46;18.00;;;11.03;;
21114;SDS011;10715;48.546;9.896;2023-04-08T05:31:14;13.20;;;8.50;;
21114;SDS011;10715;48.546;9.896;2023-04-08T05:33:40;16.00;;;9.80;;
21114;SDS011;10715;48.546;9.896;2023-04-08T05:36:06;19.07;;;10.03;;
21114;SDS011;10715;48.546;9.896;2023-04-08T05:38:31;22.83;;;11.80;;
21114;SDS011;10715;48.546;9.896;2023-04-08T05:40:57;22.30;;;11.80;;
21114;SDS011;10715;48.546;9.896;2023-04-08T05:43:23;19.40;;;9.57;;
21114;SDS011;10715;48.546;9.896;2023-04-08T05:45:49;17.83;;;11.20;;
21114;SDS011;10715;48.546;9.896;2023-04-08T05:48:15;17.53;;;10.80;;
21114;SDS011;10715;48.546;9.896;2023-04-08T05:50:41;15.10;;;8.80;;
21114;SDS011;10715;48.546;9.896;2023-04-08T05:53:08;17.60;;;11.17;;
21114;SDS011;10715;48.546;9.896;2023-04-08T05:55:34;19.50;;;11.47;;
21114;SDS011;10715;48.546;9.896;2023-04-08T05:57:59;14.33;;;9.87;;
21114;SDS011;10715;48.546;9.896;2023-04-08T06:00:25;14.17;;;9.43;;
21114;SDS011;10715;48.546;9.896;2023-04-08T06:02:51;17.60;;;11.13;;
21114;SDS011;10715;48.546;9.896;2023-04-08T06:05:17;22.17;;;12.00;;
21114;SDS011;10715;48.546;9.896;2023-04-08T06:07:43;18.97;;;11.23;;
21114;SDS011;10715;48.546;9.896;2023-04-08T06:10:09;16.87;;;11.77;;
21114;SDS011;10715;48.546;9.896;2023-04-08T06:12:35;25.47;;;13.10;;
21114;SDS011;10715;48.546;9.896;2023-04-08T06:15:05;19.80;;;11.00;;
21114;SDS011;10715;48.546;9.896;2023-04-08T06:17:31;21.23;;;12.50;;
21114;SDS011;10715;48.546;9.896;2023-04-08T06:20:00;15.70;;;10.83;;
21114;SDS011;10715;48.546;9.896;2023-04-08T06:22:26;20.50;;;11.43;;
21114;SDS011;10715;48.546;9.896;2023-04-08T06:24:51;18.90;;;12.67;;
21114;SDS011;10715;48.546;9.896;2023-04-08T06:27:17;23.50;;;12.77;;
21114;SDS011;10715;48.546;9.896;2023-04-08T06:29:43;24.67;;;13.33;;
21114;SDS011;10715;48.546;9.896;2023-04-08T06:32:09;24.60;;;13.17;;
21114;SDS011;10715;48.546;9.896;2023-04-08T06:34:35;23.97;;;12.97;;
21114;SDS011;10715;48.546;9.896;2023-04-08T06:37:01;29.17;;;13.70;;
21114;SDS011;10715;48.546;9.896;2023-04-08T06:39:30;27.83;;;13.83;;
21114;SDS011;10715;48.546;9.896;2023-04-08T06:41:55;25.23;;;13.57;;
21114;SDS011;10715;48.546;9.896;2023-04-08T06:44:22;25.30;;;14.57;;
21114;SDS011;10715;48.546;9.896;2023-04-08T06:46:48;23.67;;;13.37;;
21114;SDS011;10715;48.546;9.896;2023-04-08T06:49:14;28.90;;;13.67;;
21114;SDS011;10715;48.546;9.896;2023-04-08T06:51:39;21.90;;;13.27;;
21114;SDS011;10715;48.546;9.896;2023-04-08T06:54:05;28.90;;;13.60;;
21114;SDS011;10715;48.546;9.896;2023-04-08T06:56:31;26.50;;;13.33;;
21114;SDS011;10715;48.546;9.896;2023-04-08T06:58:56;30.47;;;15.90;;
21114;SDS011;10715;48.546;9.896;2023-04-08T07:01:22;26.13;;;13.90;;
21114;SDS011;10715;48.546;9.896;2023-04-08T07:03:48;26.23;;;14.47;;
21114;SDS011;10715;48.546;9.896;2023-04-08T07:06:15;35.13;;;15.60;;
21114;SDS011;10715;48.546;9.896;2023-04-08T07:08:40;28.93;;;14.87;;
21114;SDS011;10715;48.546;9.896;2023-04-08T07:11:06;26.73;;;15.37;;
21114;SDS011;10715;48.546;9.896;2023-04-08T07:13:32;30.40;;;15.03;;
21114;SDS011;10715;48.546;9.896;2023-04-08T07:15:58;33.23;;;15.70;;
21114;SDS011;10715;48.546;9.896;2023-04-08T07:18:24;28.33;;;15.07;;
21114;SDS011;10715;48.546;9.896;2023-04-08T07:20:50;27.77;;;15.90;;
21114;SDS011;10715;48.546;9.896;2023-04-08T07:23:18;21.60;;;11.83;;
21114;SDS011;10715;48.546;9.896;2023-04-08T07:25:44;21.63;;;13.17;;
21114;SDS011;10715;48.546;9.896;2023-04-08T07:28:10;25.77;;;12.80;;
21114;SDS011;10715;48.546;9.896;2023-04-08T07:30:36;25.17;;;12.97;;
21114;SDS011;10715;48.546;9.896;2023-04-08T07:33:02;18.33;;;12.00;;
21114;SDS011;10715;48.546;9.896;2023-04-08T07:35:28;27.27;;;12.77;;
21114;SDS011;10715;48.546;9.896;2023-04-08T07:37:56;24.90;;;13.87;;
21114;SDS011;10715;48.546;9.896;2023-04-08T07:40:22;23.13;;;12.43;;
21114;SDS011;10715;48.546;9.896;2023-04-08T07:42:47;19.87;;;12.73;;
21114;SDS011;10715;48.546;9.896;2023-04-08T07:45:13;19.07;;;13.00;;
21114;SDS011;10715;48.546;9.896;2023-04-08T07:47:39;21.60;;;12.73;;
21114;SDS011;10715;48.546;9.896;2023-04-08T07:50:05;20.37;;;12.40;;
21114;SDS011;10715;48.546;9.896;2023-04-08T07:52:32;17.87;;;9.97;;
21114;SDS011;10715;48.546;9.896;2023-04-08T07:54:58;19.03;;;11.50;;
21114;SDS011;10715;48.546;9.896;2023-04-08T07:57:24;18.50;;;11.10;;
21114;SDS011;10715;48.546;9.896;2023-04-08T07:59:50;25.60;;;12.00;;
21114;SDS011;10715;48.546;9.896;2023-04-08T08:02:16;19.57;;;11.20;;
21114;SDS011;10715;48.546;9.896;2023-04-08T08:04:42;18.67;;;10.13;;
21114;SDS011;10715;48.546;9.896;2023-04-08T08:07:08;17.17;;;11.37;;
21114;SDS011;10715;48.546;9.896;2023-04-08T08:09:33;17.53;;;10.67;;
21114;SDS011;10715;48.546;9.896;2023-04-08T08:11:59;19.13;;;9.77;;
21114;SDS011;10715;48.546;9.896;2023-04-08T08:14:25;23.03;;;12.13;;
21114;SDS011;10715;48.546;9.896;2023-04-08T08:16:51;22.17;;;9.97;;
21114;SDS011;10715;48.546;9.896;2023-04-08T08:19:18;15.17;;;10.73;;
21114;SDS011;10715;48.546;9.896;2023-04-08T08:21:44;17.40;;;9.80;;
21114;SDS011;10715;48.546;9.896;2023-04-08T08:24:10;15.90;;;9.87;;
21114;SDS011;10715;48.546;9.896;2023-04-08T08:26:36;20.63;;;11.50;;
21114;SDS011;10715;48.546;9.896;2023-04-08T08:29:02;15.83;;;11.33;;
21114;SDS011;10715;48.546;9.896;2023-04-08T08:31:28;18.03;;;10.73;;
21114;SDS011;10715;48.546;9.896;2023-04-08T08:33:54;20.23;;;11.33;;
21114;SDS011;10715;48.546;9.896;2023-04-08T08:36:20;13.83;;;9.07;;
21114;SDS011;10715;48.546;9.896;2023-04-08T08:38:46;30.63;;;11.73;;
21114;SDS011;10715;48.546;9.896;2023-04-08T08:41:12;21.40;;;12.80;;
21114;SDS011;10715;48.546;9.896;2023-04-08T08:43:37;17.23;;;11.20;;
21114;SDS011;10715;48.546;9.896;2023-04-08T08:46:04;17.50;;;11.40;;
21114;SDS011;10715;48.546;9.896;2023-04-08T08:48:34;17.40;;;9.67;;
21114;SDS011;10715;48.546;9.896;2023-04-08T08:51:06;16.33;;;11.53;;
21114;SDS011;10715;48.546;9.896;2023-04-08T08:53:33;20.23;;;11.53;;
21114;SDS011;10715;48.546;9.896;2023-04-08T08:55:59;21.47;;;11.87;;
21114;SDS011;10715;48.546;9.896;2023-04-08T08:58:25;19.37;;;10.63;;
21114;SDS011;10715;48.546;9.896;2023-04-08T09:00:52;16.23;;;11.90;;
21114;SDS011;10715;48.546;9.896;2023-04-08T09:03:21;21.37;;;12.10;;
21114;SDS011;10715;48.546;9.896;2023-04-08T09:08:28;15.50;;;10.90;;
21114;SDS011;10715;48.546;9.896;2023-04-08T09:11:09;14.43;;;10.57;;
21114;SDS011;10715;48.546;9.896;2023-04-08T09:13:38;14.33;;;9.37;;
21114;SDS011;10715;48.546;9.896;2023-04-08T09:16:05;23.90;;;12.37;;
21114;SDS011;10715;48.546;9.896;2023-04-08T09:18:33;24.23;;;11.30;;
21114;SDS011;10715;48.546;9.896;2023-04-08T09:21:04;15.10;;;11.10;;
21114;SDS011;10715;48.546;9.896;2023-04-08T09:23:47;16.47;;;11.00;;
21114;SDS011;10715;48.546;9.896;2023-04-08T09:28:44;19.00;;;11.13;;
21114;SDS011;10715;48.546;9.896;2023-04-08T09:31:35;19.97;;;10.10;;
21114;SDS011;10715;48.546;9.896;2023-04-08T09:34:08;17.30;;;11.83;;
21114;SDS011;10715;48.546;9.896;2023-04-08T09:36:36;16.23;;;10.90;;
21114;SDS011;10715;48.546;9.896;2023-04-08T09:39:02;25.93;;;14.07;;
21114;SDS011;10715;48.546;9.896;2023-04-08T09:41:30;14.10;;;10.60;;
21114;SDS011;10715;48.546;9.896;2023-04-08T09:43:58;18.83;;;12.30;;
21114;SDS011;10715;48.546;9.896;2023-04-08T09:49:22;19.60;;;10.43;;
21114;SDS011;10715;48.546;9.896;2023-04-08T09:52:12;15.60;;;10.73;;
21114;SDS011;10715;48.546;9.896;2023-04-08T10:00:12;15.17;;;10.90;;
21114;SDS011;10715;48.546;9.896;2023-04-08T10:05:17;12.80;;;10.60;;
21114;SDS011;10715;48.546;9.896;2023-04-08T10:07:43;11.30;;;9.77;;
21114;SDS011;10715;48.546;9.896;2023-04-08T10:10:09;16.20;;;10.83;;
21114;SDS011;10715;48.546;9.896;2023-04-08T10:12:35;14.00;;;10.47;;
21114;SDS011;10715;48.546;9.896;2023-04-08T10:15:21;12.40;;;10.23;;
21114;SDS011;10715;48.546;9.896;2023-04-08T10:18:39;17.03;;;10.70;;
21114;SDS011;10715;48.546;9.896;2023-04-08T10:20:44;20.13;;;11.40;;
21114;SDS011;10715;48.546;9.896;2023-04-08T10:25:44;21.97;;;13.10;;
21114;SDS011;10715;48.546;9.896;2023-04-08T10:30:43;12.27;;;10.00;;
21114;SDS011;10715;48.546;9.896;2023-04-08T10:35:52;19.80;;;11.40;;
21114;SDS011;10715;48.546;9.896;2023-04-08T10:38:18;17.67;;;9.80;;
21114;SDS011;10715;48.546;9.896;2023-04-08T10:40:46;12.87;;;10.80;;
21114;SDS011;10715;48.546;9.896;2023-04-08T10:43:13;16.90;;;10.87;;
21114;SDS011;10715;48.546;9.896;2023-04-08T10:45:40;20.40;;;11.83;;
21114;SDS011;10715;48.546;9.896;2023-04-08T10:48:19;19.13;;;10.80;;
21114;SDS011;10715;48.546;9.896;2023-04-08T10:53:40;13.23;;;9.67;;
21114;SDS011;10715;48.546;9.896;2023-04-08T10:56:07;11.73;;;9.57;;
21114;SDS011;10715;48.546;9.896;2023-04-08T10:58:46;13.63;;;9.97;;
21114;SDS011;10715;48.546;9.896;2023-04-08T11:01:16;17.37;;;10.30;;
21114;SDS011;10715;48.546;9.896;2023-04-08T11:03:42;15.60;;;11.50;;
21114;SDS011;10715;48.546;9.896;2023-04-08T11:06:08;12.80;;;10.60;;
21114;SDS011;10715;48.546;9.896;2023-04-08T11:08:34;11.37;;;10.20;;
21114;SDS011;10715;48.546;9.896;2023-04-08T11:11:04;13.97;;;12.07;;
21114;SDS011;10715;48.546;9.896;2023-04-08T11:13:38;18.23;;;9.83;;
21114;SDS011;10715;48.546;9.896;2023-04-08T11:16:06;18.10;;;12.80;;
21114;SDS011;10715;48.546;9.896;2023-04-08T11:18:38;17.00;;;12.57;;
21114;SDS011;10715;48.546;9.896;2023-04-08T11:21:08;14.43;;;10.97;;
21114;SDS011;10715;48.546;9.896;2023-04-08T11:23:34;16.90;;;12.47;;
21114;SDS011;10715;48.546;9.896;2023-04-08T11:26:00;18.47;;;11.80;;
21114;SDS011;10715;48.546;9.896;2023-04-08T11:28:27;15.90;;;11.13;;
21114;SDS011;10715;48.546;9.896;2023-04-08T11:30:53;12.80;;;10.10;;
21114;SDS011;10715;48.546;9.896;2023-04-08T11:33:19;17.93;;;11.53;;
21114;SDS011;10715;48.546;9.896;2023-04-08T11:35:49;18.00;;;12.50;;
21114;SDS011;10715;48.546;9.896;2023-04-08T11:38:15;15.40;;;11.63;;
21114;SDS011;10715;48.546;9.896;2023-04-08T11:40:55;14.70;;;10.70;;
21114;SDS011;10715;48.546;9.896;2023-04-08T11:43:22;12.73;;;10.50;;
21114;SDS011;10715;48.546;9.896;2023-04-08T11:45:49;12.00;;;10.50;;
21114;SDS011;10715;48.546;9.896;2023-04-08T11:48:15;10.97;;;9.73;;
21114;SDS011;10715;48.546;9.896;2023-04-08T11:50:41;11.53;;;9.30;;
21114;SDS011;10715;48.546;9.896;2023-04-08T11:53:21;11.97;;;10.63;;
21114;SDS011;10715;48.546;9.896;2023-04-08T11:55:49;12.80;;;11.50;;
21114;SDS011;10715;48.546;9.896;2023-04-08T11:58:15;21.93;;;12.20;;
21114;SDS011;10715;48.546;9.896;2023-04-08T12:00:41;17.20;;;10.80;;
21114;SDS011;10715;48.546;9.896;2023-04-08T12:03:08;18.47;;;11.60;;
21114;SDS011;10715;48.546;9.896;2023-04-08T12:05:34;9.57;;;8.63;;
21114;SDS011;10715;48.546;9.896;2023-04-08T12:08:00;18.83;;;11.20;;
21114;SDS011;10715;48.546;9.896;2023-04-08T12:10:27;15.03;;;10.53;;
21114;SDS011;10715;48.546;9.896;2023-04-08T12:12:53;10.00;;;8.90;;
21114;SDS011;10715;48.546;9.896;2023-04-08T12:15:18;16.13;;;12.00;;
21114;SDS011;10715;48.546;9.896;2023-04-08T12:17:44;12.33;;;10.70;;
21114;SDS011;10715;48.546;9.896;2023-04-08T12:20:10;18.93;;;10.07;;
21114;SDS011;10715;48.546;9.896;2023-04-08T12:22:36;12.37;;;9.20;;
21114;SDS011;10715;48.546;9.896;2023-04-08T12:25:03;12.70;;;10.30;;
21114;SDS011;10715;48.546;9.896;2023-04-08T12:27:29;17.10;;;10.67;;
21114;SDS011;10715;48.546;9.896;2023-04-08T12:29:57;11.23;;;9.73;;
21114;SDS011;10715;48.546;9.896;2023-04-08T12:32:23;15.07;;;10.07;;
21114;SDS011;10715;48.546;9.896;2023-04-08T12:34:50;13.90;;;9.20;;
21114;SDS011;10715;48.546;9.896;2023-04-08T12:37:15;12.20;;;8.50;;
21114;SDS011;10715;48.546;9.896;2023-04-08T12:39:41;12.93;;;8.60;;
21114;SDS011;10715;48.546;9.896;2023-04-08T12:42:07;10.50;;;8.53;;
21114;SDS011;10715;48.546;9.896;2023-04-08T12:44:33;11.03;;;8.90;;
21114;SDS011;10715;48.546;9.896;2023-04-08T12:46:59;16.33;;;10.03;;
21114;SDS011;10715;48.546;9.896;2023-04-08T12:49:25;11.93;;;8.47;;
21114;SDS011;10715;48.546;9.896;2023-04-08T12:51:51;12.60;;;7.40;;
21114;SDS011;10715;48.546;9.896;2023-04-08T12:54:17;14.27;;;7.80;;
21114;SDS011;10715;48.546;9.896;2023-04-08T12:56:43;13.07;;;9.20;;
21114;SDS011;10715;48.546;9.896;2023-04-08T12:59:09;11.70;;;7.77;;
21114;SDS011;10715;48.546;9.896;2023-04-08T13:01:35;11.80;;;7.67;;
21114;SDS011;10715;48.546;9.896;2023-04-08T13:04:01;8.30;;;7.50;;
21114;SDS011;10715;48.546;9.896;2023-04-08T13:06:27;13.00;;;9.80;;
21114;SDS011;10715;48.546;9.896;2023-04-08T13:08:53;9.80;;;8.93;;
21114;SDS011;10715;48.546;9.896;2023-04-08T13:11:19;9.00;;;7.00;;
21114;SDS011;10715;48.546;9.896;2023-04-08T13:13:45;9.53;;;8.03;;
21114;SDS011;10715;48.546;9.896;2023-04-08T13:16:11;7.77;;;7.03;;
21114;SDS011;10715;48.546;9.896;2023-04-08T13:18:40;9.33;;;8.27;;
21114;SDS011;10715;48.546;9.896;2023-04-08T13:21:06;9.93;;;8.23;;
21114;SDS011;10715;48.546;9.896;2023-04-08T13:23:33;8.37;;;7.63;;
21114;SDS011;10715;48.546;9.896;2023-04-08T13:25:58;11.83;;;8.30;;
21114;SDS011;10715;48.546;9.896;2023-04-08T13:28:24;9.07;;;7.50;;
21114;SDS011;10715;48.546;9.896;2023-04-08T13:30:50;8.20;;;7.37;;
21114;SDS011;10715;48.546;9.896;2023-04-08T13:33:16;10.03;;;8.47;;
21114;SDS011;10715;48.546;9.896;2023-04-08T13:35:42;11.73;;;8.23;;
21114;SDS011;10715;48.546;9.896;2023-04-08T13:38:07;7.97;;;7.17;;
21114;SDS011;10715;48.546;9.896;2023-04-08T13:40:33;9.80;;;7.87;;
21114;SDS011;10715;48.546;9.896;2023-04-08T13:43:00;13.90;;;7.53;;
21114;SDS011;10715;48.546;9.896;2023-04-08T13:45:26;8.93;;;6.13;;
21114;SDS011;10715;48.546;9.896;2023-04-08T13:47:51;8.53;;;7.70;;
21114;SDS011;10715;48.546;9.896;2023-04-08T13:50:17;11.27;;;8.10;;
21114;SDS011;10715;48.546;9.896;2023-04-08T13:52:43;7.20;;;6.37;;
21114;SDS011;10715;48.546;9.896;2023-04-08T13:55:09;8.83;;;7.60;;
21114;SDS011;10715;48.546;9.896;2023-04-08T13:57:34;10.43;;;8.40;;
21114;SDS011;10715;48.546;9.896;2023-04-08T14:00:00;7.20;;;6.50;;
21114;SDS011;10715;48.546;9.896;2023-04-08T14:02:27;13.30;;;6.33;;
21114;SDS011;10715;48.546;9.896;2023-04-08T14:04:53;6.60;;;6.00;;
21114;SDS011;10715;48.546;9.896;2023-04-08T14:07:18;9.30;;;8.37;;
21114;SDS011;10715;48.546;9.896;2023-04-08T14:09:45;7.07;;;6.50;;
21114;SDS011;10715;48.546;9.896;2023-04-08T14:12:11;7.60;;;6.83;;
21114;SDS011;10715;48.546;9.896;2023-04-08T14:14:37;7.50;;;6.77;;
21114;SDS011;10715;48.546;9.896;2023-04-08T14:17:02;10.03;;;6.50;;
21114;SDS011;10715;48.546;9.896;2023-04-08T14:19:28;9.90;;;6.40;;
21114;SDS011;10715;48.546;9.896;2023-04-08T14:21:54;9.83;;;7.10;;
21114;SDS011;10715;48.546;9.896;2023-04-08T14:24:20;7.70;;;7.00;;
21114;SDS011;10715;48.546;9.896;2023-04-08T14:26:45;8.67;;;7.20;;
21114;SDS011;10715;48.546;9.896;2023-04-08T14:29:11;12.17;;;7.30;;
21114;SDS011;10715;48.546;9.896;2023-04-08T14:31:37;7.90;;;6.20;;
21114;SDS011;10715;48.546;9.896;2023-04-08T14:34:03;9.27;;;8.37;;
21114;SDS011;10715;48.546;9.896;2023-04-08T14:36:29;10.60;;;6.70;;
21114;SDS011;10715;48.546;9.896;2023-04-08T14:38:57;10.47;;;7.33;;
21114;SDS011;10715;48.546;9.896;2023-04-08T14:41:23;7.97;;;6.37;;
21114;SDS011;10715;48.546;9.896;2023-04-08T14:43:51;7.10;;;5.80;;
21114;SDS011;10715;48.546;9.896;2023-04-08T14:46:17;12.73;;;7.73;;
21114;SDS011;10715;48.546;9.896;2023-04-08T14:48:43;6.60;;;6.00;;
21114;SDS011;10715;48.546;9.896;2023-04-08T14:51:09;8.70;;;6.93;;
21114;SDS011;10715;48.546;9.896;2023-04-08T14:53:35;8.33;;;7.50;;
21114;SDS011;10715;48.546;9.896;2023-04-08T14:56:01;8.00;;;7.20;;
21114;SDS011;10715;48.546;9.896;2023-04-08T14:58:26;7.60;;;6.77;;
21114;SDS011;10715;48.546;9.896;2023-04-08T15:00:52;7.90;;;7.03;;